South Windham, Maine
Current Conditions -  °F | °C
As of 6:51 PM on Saturday 20 Dec 2014 (Local Time) from KPWM Reporting Station
Few Clouds Few Clouds  
Wind Chill: 19°   Ceiling: Unl
Heat Index: 28°   Visibility: 10mi
Dew Point: 21°   Wind: 9mph
Humidity: 75%   Direction: 50°NE
Pressure: 30.36"   Gusts: NA
Location:  43.74°N, 70.42°W
Report Text: KPWM 202351Z 05008KT 10SM FEW025 M02/M06 A3036 RMK AO2 SLP281 T10221061 10011 21022 53017
Loading
Personal Weather Stations






























Interactive Weather Map New forecast layout! Learn more

10-Day Weather Forecast

Advertisements
Track Severe Weather on mobile